Time;durP1;ratioP1;P1;durP2;ratioP2;P2;SDS_P1;SDS_P2;PMS_P1;PMS_P2;Temp;Humidity;BMP_temperature;BMP_pressure;BME280_temperature;BME280_humidity;BME280_pressure;Samples;Min_cycle;Max_cycle;Signal;HPM_P1;HPM_P2
2023/06/19 00:01:52;;;;;;;;;;;;;;;25.32;51.29;97571.19;5146559;27;20016;-79
2023/06/19 00:04:18;;;;;;;;;;;;;;;25.39;51.10;97571.31;5149990;27;19923;-80
2023/06/19 00:06:44;;;;;;;;;;;;;;;25.32;51.11;97572.00;5150540;27;19927;-80
2023/06/19 00:09:11;;;;;;;;;;;;;;;25.07;51.76;97573.53;5146957;27;19924;-80
2023/06/19 00:11:38;;;;;;;;;;;;;;;25.00;52.24;97565.25;5145454;27;19928;-80
2023/06/19 00:14:05;;;;;;;;;;;;;;;25.20;51.84;97572.19;5145062;27;19989;-79
2023/06/19 00:16:32;;;;;;;;;;;;;;;24.99;51.97;97566.38;5131304;27;19912;-80
2023/06/19 00:18:59;;;;;;;;;;;;;;;25.05;52.38;97567.66;5147981;27;19929;-80
2023/06/19 00:21:26;;;;;;;;;;;;;;;25.06;52.47;97575.50;5143544;27;20010;-79
2023/06/19 00:23:52;;;;;;;;;;;;;;;24.99;52.64;97574.59;5143878;27;19920;-81
2023/06/19 00:26:19;;;;;;;;;;;;;;;25.01;52.69;97572.28;5146962;27;19923;-79
2023/06/19 00:28:48;;;;;;;;;;;;;;;24.97;52.75;97574.97;5146577;27;20540;-79
2023/06/19 00:31:16;;;;;;;;;;;;;;;25.07;52.81;97585.25;5144034;27;19928;-79
2023/06/19 00:33:42;;;;;;;;;;;;;;;25.07;52.60;97568.06;5143141;27;19931;-80
2023/06/19 00:36:09;;;;;;;;;;;;;;;25.12;52.51;97578.72;5126833;27;19958;-79
2023/06/19 00:38:36;;;;;;;;;;;;;;;25.09;52.44;97574.78;5128678;27;19947;-80
2023/06/19 00:41:02;;;;;;;;;;;;;;;25.16;52.40;97574.88;5148779;27;19998;-79
2023/06/19 00:43:29;;;;;;;;;;;;;;;25.11;52.44;97575.19;5148888;27;19939;-80
2023/06/19 00:45:58;;;;;;;;;;;;;;;25.06;52.46;97574.72;5149957;27;19934;-79
2023/06/19 00:48:24;;;;;;;;;;;;;;;24.84;53.06;97568.09;5153029;27;19908;-79
2023/06/19 00:50:51;;;;;;;;;;;;;;;25.01;53.06;97558.63;5153199;27;19930;-80
2023/06/19 00:53:18;;;;;;;;;;;;;;;25.08;53.24;97564.19;5149777;27;19920;-79
2023/06/19 00:55:45;;;;;;;;;;;;;;;24.80;53.62;97555.50;5149215;27;19989;-78
2023/06/19 00:58:12;;;;;;;;;;;;;;;24.90;53.55;97561.19;5133588;27;19959;-79
2023/06/19 01:00:38;;;;;;;;;;;;;;;25.04;53.34;97561.41;5152101;27;19933;-79
2023/06/19 01:03:06;;;;;;;;;;;;;;;24.98;53.27;97559.34;5146779;27;19924;-79
2023/06/19 01:05:33;;;;;;;;;;;;;;;24.73;54.53;97567.06;5143548;27;19928;-80
2023/06/19 01:08:00;;;;;;;;;;;;;;;24.89;54.30;97569.72;5143827;27;19991;-79
2023/06/19 01:10:28;;;;;;;;;;;;;;;24.91;53.93;97565.50;5146592;27;19924;-79
2023/06/19 01:12:57;;;;;;;;;;;;;;;24.85;54.29;97558.72;5145698;27;19979;-78
2023/06/19 01:15:23;;;;;;;;;;;;;;;24.97;53.85;97560.50;5134463;27;19980;-79
2023/06/19 01:17:50;;;;;;;;;;;;;;;24.99;53.43;97563.66;5142287;27;20004;-79
2023/06/19 01:20:18;;;;;;;;;;;;;;;24.98;53.42;97557.41;5144735;27;19962;-80
2023/06/19 01:22:46;;;;;;;;;;;;;;;25.04;53.04;97552.41;5145625;27;20037;-80
2023/06/19 01:25:13;;;;;;;;;;;;;;;24.81;53.30;97557.09;5142879;27;20051;-80
2023/06/19 01:27:41;;;;;;;;;;;;;;;24.66;53.89;97556.81;5124035;28;19924;-79
2023/06/19 01:30:09;;;;;;;;;;;;;;;24.67;53.98;97549.41;5143627;27;19923;-80
2023/06/19 01:32:40;;;;;;;;;;;;;;;24.66;53.84;97540.44;5145578;27;19930;-79
2023/06/19 01:35:08;;;;;;;;;;;;;;;24.61;54.00;97551.66;5144839;27;19958;-80
2023/06/19 01:37:35;;;;;;;;;;;;;;;24.67;53.65;97550.22;5123685;28;19924;-80
2023/06/19 01:40:06;;;;;;;;;;;;;;;24.54;54.44;97543.34;5142543;27;19981;-79
2023/06/19 01:42:33;;;;;;;;;;;;;;;24.51;54.89;97551.50;5145129;27;19928;-79
2023/06/19 01:45:02;;;;;;;;;;;;;;;24.38;55.10;97559.06;5144313;27;19923;-79
2023/06/19 01:47:31;;;;;;;;;;;;;;;24.39;55.46;97555.16;5141938;27;19938;-80
2023/06/19 01:49:58;;;;;;;;;;;;;;;24.39;55.56;97557.88;5145323;27;19956;-78
2023/06/19 01:52:24;;;;;;;;;;;;;;;24.45;55.70;97556.44;5148412;27;19931;-79
2023/06/19 01:54:50;;;;;;;;;;;;;;;24.39;55.75;97557.88;5146100;27;19951;-79
2023/06/19 01:57:18;;;;;;;;;;;;;;;24.33;55.63;97564.78;5141920;27;19947;-79
2023/06/19 01:59:45;;;;;;;;;;;;;;;24.34;55.62;97566.38;5142653;27;19924;-80
2023/06/19 02:02:11;;;;;;;;;;;;;;;24.42;55.47;97565.34;5126436;27;19924;-80
2023/06/19 02:04:38;;;;;;;;;;;;;;;24.40;55.43;97575.84;5145948;27;19934;-80
2023/06/19 02:07:04;;;;;;;;;;;;;;;24.45;55.38;97566.59;5143411;27;19991;-79
2023/06/19 02:09:31;;;;;;;;;;;;;;;24.47;55.36;97570.53;5143446;27;19924;-78
2023/06/19 02:11:57;;;;;;;;;;;;;;;24.51;55.22;97565.13;5148192;27;19912;-78
2023/06/19 02:14:25;;;;;;;;;;;;;;;24.56;55.23;97562.09;5151326;27;19943;-79
2023/06/19 02:16:51;;;;;;;;;;;;;;;24.55;55.03;97572.22;5151236;28;19911;-79
2023/06/19 02:19:17;;;;;;;;;;;;;;;24.53;54.88;97569.09;5142514;28;19935;-79
2023/06/19 02:21:44;;;;;;;;;;;;;;;24.42;55.23;97567.28;5122934;28;20001;-80
2023/06/19 02:24:10;;;;;;;;;;;;;;;24.52;54.87;97570.22;5143824;28;19924;-80
2023/06/19 02:26:37;;;;;;;;;;;;;;;24.49;54.86;97579.13;5144803;28;19920;-80
2023/06/19 02:29:03;;;;;;;;;;;;;;;24.56;54.88;97573.03;5143368;28;19920;-80
2023/06/19 02:31:31;;;;;;;;;;;;;;;24.49;54.90;97584.59;5141774;28;19931;-80
2023/06/19 02:33:58;;;;;;;;;;;;;;;24.44;55.11;97589.56;5141910;28;19987;-79
2023/06/19 02:36:24;;;;;;;;;;;;;;;24.35;55.07;97581.59;5144884;27;19927;-80
2023/06/19 02:38:50;;;;;;;;;;;;;;;24.25;55.59;97589.56;5148673;27;19923;-79
2023/06/19 02:41:18;;;;;;;;;;;;;;;24.22;55.82;97591.09;5127054;28;19920;-79
2023/06/19 02:43:45;;;;;;;;;;;;;;;24.17;55.97;97594.88;5145015;27;19930;-80
2023/06/19 02:46:12;;;;;;;;;;;;;;;24.19;55.92;97600.00;5147672;27;19924;-80
2023/06/19 02:48:41;;;;;;;;;;;;;;;24.17;55.68;97605.00;5148683;27;19949;-80
2023/06/19 02:51:07;;;;;;;;;;;;;;;24.19;55.84;97608.19;5146557;27;19970;-79
2023/06/19 02:53:33;;;;;;;;;;;;;;;24.23;55.86;97602.78;5145041;27;19946;-79
2023/06/19 02:55:59;;;;;;;;;;;;;;;24.35;55.52;97610.84;5145539;27;19970;-80
2023/06/19 02:58:26;;;;;;;;;;;;;;;24.24;55.13;97605.16;5130117;27;20009;-79
2023/06/19 03:00:53;;;;;;;;;;;;;;;23.50;56.34;97609.75;5149071;27;19923;-79
2023/06/19 03:03:19;;;;;;;;;;;;;;;23.10;57.99;97601.75;5145581;27;19928;-80
2023/06/19 03:05:47;;;;;;;;;;;;;;;22.97;58.96;97602.97;5145113;27;19959;-80
2023/06/19 03:08:13;;;;;;;;;;;;;;;22.84;59.14;97604.19;5147576;27;19987;-79
2023/06/19 03:10:40;;;;;;;;;;;;;;;22.83;59.01;97613.50;5148346;27;19969;-79
2023/06/19 03:13:06;;;;;;;;;;;;;;;23.13;58.77;97616.59;5128249;27;19924;-79
2023/06/19 03:15:32;;;;;;;;;;;;;;;23.46;58.02;97621.69;5144638;27;19951;-79
2023/06/19 03:18:03;;;;;;;;;;;;;;;23.72;57.29;97626.59;5127006;27;19928;-79
2023/06/19 03:20:29;;;;;;;;;;;;;;;23.87;56.86;97642.13;5147668;27;19927;-79
2023/06/19 03:22:57;;;;;;;;;;;;;;;23.76;56.90;97632.91;5129331;27;19923;-79
2023/06/19 03:25:23;;;;;;;;;;;;;;;23.90;56.41;97642.19;5126274;28;19955;-79
2023/06/19 03:27:50;;;;;;;;;;;;;;;24.07;55.77;97628.19;5144087;27;19924;-79
2023/06/19 03:30:18;;;;;;;;;;;;;;;23.69;56.11;97627.31;5128951;27;20015;-79
2023/06/19 03:32:44;;;;;;;;;;;;;;;23.61;56.32;97624.41;5147844;27;19991;-79
2023/06/19 03:35:11;;;;;;;;;;;;;;;23.42;56.80;97632.53;5145189;27;19986;-80
2023/06/19 03:37:37;;;;;;;;;;;;;;;22.91;57.60;97628.09;5144358;27;19965;-79
2023/06/19 03:40:07;;;;;;;;;;;;;;;23.25;57.47;97624.69;5145223;27;19920;-80
2023/06/19 03:42:34;;;;;;;;;;;;;;;23.38;57.25;97639.00;5146743;27;19924;-79
2023/06/19 03:45:01;;;;;;;;;;;;;;;23.03;58.88;97633.47;5147814;27;19912;-81
2023/06/19 03:47:27;;;;;;;;;;;;;;;22.56;60.50;97625.22;5125106;28;19930;-79
2023/06/19 03:49:53;;;;;;;;;;;;;;;22.71;60.11;97631.84;5143229;27;19969;-79
2023/06/19 03:52:20;;;;;;;;;;;;;;;22.73;59.69;97626.84;5135529;27;20065;-79
2023/06/19 03:54:46;;;;;;;;;;;;;;;22.84;59.62;97627.94;5144093;27;20038;-79
2023/06/19 03:57:14;;;;;;;;;;;;;;;22.90;58.99;97645.59;5139769;27;19928;-79
2023/06/19 03:59:40;;;;;;;;;;;;;;;23.26;57.74;97648.06;5145461;27;19931;-79
2023/06/19 04:02:07;;;;;;;;;;;;;;;23.46;57.13;97657.13;5146127;27;19945;-79
2023/06/19 04:04:33;;;;;;;;;;;;;;;23.24;57.59;97661.22;5125345;28;19941;-80
2023/06/19 04:07:00;;;;;;;;;;;;;;;23.29;57.24;97657.47;5143967;27;19935;-80
2023/06/19 04:09:26;;;;;;;;;;;;;;;23.25;57.17;97667.47;5146647;27;19923;-79
2023/06/19 04:11:52;;;;;;;;;;;;;;;22.79;57.47;97660.84;5147123;27;20013;-79
2023/06/19 04:14:22;;;;;;;;;;;;;;;22.56;58.73;97657.88;5125231;28;19959;-79
2023/06/19 04:16:49;;;;;;;;;;;;;;;23.03;57.93;97660.69;5143277;27;19959;-79
2023/06/19 04:19:15;;;;;;;;;;;;;;;23.37;57.26;97670.91;5127623;27;20433;-79
2023/06/19 04:21:41;;;;;;;;;;;;;;;23.55;57.08;97672.16;5146159;27;19924;-79
2023/06/19 04:24:09;;;;;;;;;;;;;;;23.67;56.36;97678.69;5127016;27;19931;-80
2023/06/19 04:26:35;;;;;;;;;;;;;;;23.64;56.64;97682.91;5146758;27;19933;-79
2023/06/19 04:29:01;;;;;;;;;;;;;;;23.37;56.68;97670.91;5150240;27;19958;-78
2023/06/19 04:31:30;;;;;;;;;;;;;;;22.83;58.05;97662.53;5131946;28;19919;-78
2023/06/19 04:33:57;;;;;;;;;;;;;;;22.83;58.39;97680.78;5150167;27;19919;-79
2023/06/19 04:36:23;;;;;;;;;;;;;;;23.18;58.12;97689.88;5152319;27;19911;-79
2023/06/19 04:38:51;;;;;;;;;;;;;;;22.89;58.69;97682.91;5147334;27;19928;-79
2023/06/19 04:41:17;;;;;;;;;;;;;;;22.47;60.39;97685.19;5143527;27;19923;-79
2023/06/19 04:43:44;;;;;;;;;;;;;;;22.73;59.78;97673.91;5142763;27;19969;-80
2023/06/19 04:46:10;;;;;;;;;;;;;;;22.92;59.43;97686.88;5145096;27;19974;-80
2023/06/19 04:48:40;;;;;;;;;;;;;;;22.91;59.45;97690.72;5149930;27;19975;-80
2023/06/19 04:51:06;;;;;;;;;;;;;;;22.90;59.78;97689.91;5145895;27;19923;-80
2023/06/19 04:53:33;;;;;;;;;;;;;;;22.64;60.70;97692.28;5147863;27;19933;-79
2023/06/19 04:55:59;;;;;;;;;;;;;;;22.60;61.14;97689.47;5140348;27;19930;-79
2023/06/19 04:58:25;;;;;;;;;;;;;;;22.25;63.01;97691.16;5142607;27;19927;-80
2023/06/19 05:00:52;;;;;;;;;;;;;;;21.97;65.79;97695.78;5149446;27;19912;-79
2023/06/19 05:03:19;;;;;;;;;;;;;;;21.65;69.12;97697.44;5125473;27;20094;-79
2023/06/19 05:05:47;;;;;;;;;;;;;;;21.94;68.77;97697.22;5147298;27;20436;-79
2023/06/19 05:08:13;;;;;;;;;;;;;;;22.51;66.06;97690.75;5141632;27;19915;-79
2023/06/19 05:10:40;;;;;;;;;;;;;;;22.25;67.03;97693.13;5145024;27;19998;-79
2023/06/19 05:13:06;;;;;;;;;;;;;;;21.76;69.86;97681.47;5145066;27;19987;-80
2023/06/19 05:15:33;;;;;;;;;;;;;;;21.23;74.12;97688.69;5146883;27;19935;-80
2023/06/19 05:17:59;;;;;;;;;;;;;;;21.30;75.86;97693.56;5145766;27;19927;-80
2023/06/19 05:20:25;;;;;;;;;;;;;;;21.45;75.67;97690.19;5143875;27;19919;-79
2023/06/19 05:22:53;;;;;;;;;;;;;;;21.82;73.32;97690.97;5146240;27;19982;-80
2023/06/19 05:25:19;;;;;;;;;;;;;;;22.24;71.31;97689.59;5142754;27;19923;-80
2023/06/19 05:27:46;;;;;;;;;;;;;;;22.58;69.03;97686.31;5143047;27;19920;-79
2023/06/19 05:30:13;;;;;;;;;;;;;;;22.30;70.65;97690.94;5144324;27;19993;-79
2023/06/19 05:32:39;;;;;;;;;;;;;;;22.02;73.45;97698.25;5145945;27;19920;-79
2023/06/19 05:35:06;;;;;;;;;;;;;;;21.75;76.49;97704.34;5125579;27;20441;-79
2023/06/19 05:37:32;;;;;;;;;;;;;;;21.41;80.24;97702.88;5123636;28;19955;-79
2023/06/19 05:40:00;;;;;;;;;;;;;;;21.35;82.26;97701.50;5142665;27;19995;-79
2023/06/19 05:42:26;;;;;;;;;;;;;;;21.28;83.96;97702.06;5145037;27;19972;-79
2023/06/19 05:44:53;;;;;;;;;;;;;;;21.09;87.01;97703.72;5145169;27;19927;-80
2023/06/19 05:47:20;;;;;;;;;;;;;;;21.11;88.22;97702.25;5141178;27;19924;-80
2023/06/19 05:49:48;;;;;;;;;;;;;;;21.34;86.87;97699.91;5122955;28;19955;-80
2023/06/19 05:52:14;;;;;;;;;;;;;;;21.49;84.83;97708.19;5143884;27;19923;-80
2023/06/19 05:54:41;;;;;;;;;;;;;;;21.59;84.38;97706.16;5145784;27;19919;-79
2023/06/19 05:57:09;;;;;;;;;;;;;;;21.43;86.00;97717.69;5143418;27;19931;-79
2023/06/19 05:59:35;;;;;;;;;;;;;;;21.28;87.27;97718.34;5130624;27;19924;-80
2023/06/19 06:02:03;;;;;;;;;;;;;;;21.49;87.67;97716.34;5133171;27;19995;-79
2023/06/19 06:04:30;;;;;;;;;;;;;;;21.48;89.28;97717.47;5111355;28;19991;-78
2023/06/19 06:06:56;;;;;;;;;;;;;;;21.40;91.29;97715.66;5134880;27;19923;-80
2023/06/19 06:09:23;;;;;;;;;;;;;;;21.41;91.93;97722.69;5134569;27;20615;-79
2023/06/19 06:11:49;;;;;;;;;;;;;;;21.58;90.45;97726.31;5144681;27;19945;-80
2023/06/19 06:14:17;;;;;;;;;;;;;;;21.64;90.99;97725.75;5141988;27;19928;-80
2023/06/19 06:16:43;;;;;;;;;;;;;;;21.68;89.29;97736.75;5141563;28;19991;-80
2023/06/19 06:19:10;;;;;;;;;;;;;;;21.64;90.38;97731.19;5143631;28;19947;-80
2023/06/19 06:21:36;;;;;;;;;;;;;;;21.71;90.21;97726.00;5145230;28;19941;-80
2023/06/19 06:24:03;;;;;;;;;;;;;;;21.58;90.45;97731.75;5142547;28;19924;-80
2023/06/19 06:26:29;;;;;;;;;;;;;;;21.82;88.54;97742.63;5144966;28;19931;-80
2023/06/19 06:28:56;;;;;;;;;;;;;;;21.82;87.66;97737.19;5144524;28;19983;-80
2023/06/19 06:31:24;;;;;;;;;;;;;;;21.89;87.20;97742.88;5123307;28;19924;-81
2023/06/19 06:33:50;;;;;;;;;;;;;;;21.80;87.50;97744.91;5141574;28;19923;-80
2023/06/19 06:36:17;;;;;;;;;;;;;;;21.86;87.58;97749.78;5144657;28;19951;-80
2023/06/19 06:38:43;;;;;;;;;;;;;;;21.90;86.68;97750.72;5145946;28;19949;-80
2023/06/19 06:41:09;;;;;;;;;;;;;;;22.50;82.42;97757.19;5142610;28;19955;-79
2023/06/19 06:43:36;;;;;;;;;;;;;;;23.08;77.18;97766.69;5141254;28;19941;-80
2023/06/19 06:46:02;;;;;;;;;;;;;;;23.24;75.92;97775.66;5142259;28;19950;-80
2023/06/19 06:48:30;;;;;;;;;;;;;;;23.09;76.98;97779.16;5144882;28;19924;-80
2023/06/19 06:51:01;;;;;;;;;;;;;;;22.60;79.62;97790.19;5144671;28;19953;-80
2023/06/19 06:53:28;;;;;;;;;;;;;;;22.83;78.30;97790.50;5141314;28;19928;-79
2023/06/19 06:55:55;;;;;;;;;;;;;;;23.03;77.09;97786.78;5141330;28;19965;-79
2023/06/19 06:58:21;;;;;;;;;;;;;;;23.19;75.94;97781.38;5132738;28;20027;-80
2023/06/19 07:00:48;;;;;;;;;;;;;;;22.87;76.89;97791.38;5141226;28;19955;-79
2023/06/19 07:03:14;;;;;;;;;;;;;;;22.65;79.26;97785.66;5143549;28;19962;-79
2023/06/19 07:05:42;;;;;;;;;;;;;;;23.05;76.75;97776.34;5126347;28;19993;-79
2023/06/19 07:08:09;;;;;;;;;;;;;;;23.43;74.49;97780.47;5142420;28;19919;-79
2023/06/19 07:10:35;;;;;;;;;;;;;;;23.37;74.94;97776.41;5141051;28;19932;-79
2023/06/19 07:13:01;;;;;;;;;;;;;;;23.27;74.75;97780.44;5141863;28;19999;-79
2023/06/19 07:15:28;;;;;;;;;;;;;;;23.20;74.27;97785.69;5145937;28;19931;-78
2023/06/19 07:17:54;;;;;;;;;;;;;;;23.23;74.43;97790.44;5150378;28;19911;-78
2023/06/19 07:20:21;;;;;;;;;;;;;;;23.42;73.50;97785.16;5117292;28;19927;-79
2023/06/19 07:22:51;;;;;;;;;;;;;;;23.53;74.40;97788.16;5146460;27;19939;-79
2023/06/19 07:25:18;;;;;;;;;;;;;;;23.63;73.54;97782.97;5144692;27;19966;-79
2023/06/19 07:27:44;;;;;;;;;;;;;;;23.50;73.53;97776.00;5143865;27;19924;-79
2023/06/19 07:30:11;;;;;;;;;;;;;;;23.45;73.30;97778.22;5146845;27;19919;-79
2023/06/19 07:32:38;;;;;;;;;;;;;;;23.41;73.75;97767.22;5153282;27;19922;-79
2023/06/19 07:35:04;;;;;;;;;;;;;;;23.46;73.51;97772.41;5152253;27;19919;-78
2023/06/19 07:37:31;;;;;;;;;;;;;;;23.42;73.36;97779.72;5150465;27;19908;-78
2023/06/19 07:39:58;;;;;;;;;;;;;;;23.45;71.74;97764.59;5150298;27;19985;-78
2023/06/19 07:42:27;;;;;;;;;;;;;;;23.48;71.70;97772.84;5153557;27;19911;-79
2023/06/19 07:44:53;;;;;;;;;;;;;;;23.50;72.56;97767.03;5151428;27;19920;-79
2023/06/19 07:47:20;;;;;;;;;;;;;;;23.59;71.84;97760.28;5143840;27;19923;-79
2023/06/19 07:49:47;;;;;;;;;;;;;;;23.63;72.70;97774.00;5143510;27;19960;-78
2023/06/19 07:52:14;;;;;;;;;;;;;;;23.64;73.58;97772.88;5128207;27;19924;-79
2023/06/19 07:54:48;;;;;;;;;;;;;;;23.75;72.43;97776.66;5147420;27;19923;-79
2023/06/19 07:57:16;;;;;;;;;;;;;;;23.97;72.49;97780.69;5144448;27;19954;-79
2023/06/19 07:59:42;;;;;;;;;;;;;;;24.03;72.54;97782.00;5143798;27;20385;-79
2023/06/19 08:02:09;;;;;;;;;;;;;;;23.91;73.53;97771.97;5145428;27;19920;-79
2023/06/19 08:04:35;;;;;;;;;;;;;;;23.92;73.69;97761.88;5129641;27;19928;-79
2023/06/19 08:07:02;;;;;;;;;;;;;;;24.03;74.00;97763.69;5147031;27;19932;-80
2023/06/19 08:09:28;;;;;;;;;;;;;;;24.21;72.76;97776.97;5143300;27;19955;-79
2023/06/19 08:11:54;;;;;;;;;;;;;;;24.35;71.72;97778.13;5143347;27;19962;-79
2023/06/19 08:14:22;;;;;;;;;;;;;;;24.50;70.75;97777.28;5134851;27;19927;-79
2023/06/19 08:16:48;;;;;;;;;;;;;;;24.28;71.31;97777.94;5143393;27;19931;-79
2023/06/19 08:19:15;;;;;;;;;;;;;;;24.39;71.56;97781.69;5145771;27;20432;-79
2023/06/19 08:21:41;;;;;;;;;;;;;;;24.36;71.64;97776.16;5146796;27;19970;-79
2023/06/19 08:24:07;;;;;;;;;;;;;;;24.49;71.86;97775.69;5145160;27;19988;-79
2023/06/19 08:26:34;;;;;;;;;;;;;;;24.58;70.88;97770.81;5146982;27;19924;-80
2023/06/19 08:29:00;;;;;;;;;;;;;;;24.49;70.68;97777.63;5145857;27;19934;-79
2023/06/19 08:31:28;;;;;;;;;;;;;;;24.56;70.67;97772.31;5142982;27;19942;-79
2023/06/19 08:33:55;;;;;;;;;;;;;;;24.63;70.00;97773.25;5141925;27;19923;-79
2023/06/19 08:36:21;;;;;;;;;;;;;;;24.66;69.80;97771.78;5134386;27;19928;-81
2023/06/19 08:38:49;;;;;;;;;;;;;;;25.00;68.98;97775.63;5142694;27;19970;-79
2023/06/19 08:41:15;;;;;;;;;;;;;;;24.97;68.61;97784.53;5145496;27;19928;-80
2023/06/19 08:43:42;;;;;;;;;;;;;;;24.95;68.28;97775.88;5146407;27;19949;-80
2023/06/19 08:46:11;;;;;;;;;;;;;;;25.01;67.91;97777.19;5144199;27;19923;-80
2023/06/19 08:48:39;;;;;;;;;;;;;;;25.24;67.79;97789.78;5144816;27;20411;-79
2023/06/19 08:51:06;;;;;;;;;;;;;;;25.41;66.90;97787.75;5148644;27;19945;-78
2023/06/19 08:53:33;;;;;;;;;;;;;;;25.38;65.79;97797.44;5142727;27;19971;-80
2023/06/19 08:56:00;;;;;;;;;;;;;;;25.26;66.20;97794.84;5143441;27;20448;-80
2023/06/19 08:58:26;;;;;;;;;;;;;;;25.42;65.31;97806.50;5146950;27;19995;-79
2023/06/19 09:00:53;;;;;;;;;;;;;;;25.37;65.13;97806.81;5150558;27;19907;-80
2023/06/19 09:03:20;;;;;;;;;;;;;;;25.45;65.02;97811.25;5130882;28;19912;-79
2023/06/19 09:05:50;;;;;;;;;;;;;;;25.76;64.28;97808.31;5147938;27;19954;-79
2023/06/19 09:08:17;;;;;;;;;;;;;;;25.96;62.27;97802.78;5150128;27;20022;-79
2023/06/19 09:10:44;;;;;;;;;;;;;;;26.06;61.82;97819.38;5150106;27;19958;-79
2023/06/19 09:13:10;;;;;;;;;;;;;;;26.15;61.51;97816.41;5129295;27;19911;-79
2023/06/19 09:15:37;;;;;;;;;;;;;;;26.16;60.78;97801.56;5146744;27;19962;-79
2023/06/19 09:18:04;;;;;;;;;;;;;;;25.90;61.52;97815.19;5147828;27;19947;-79
2023/06/19 09:20:31;;;;;;;;;;;;;;;26.13;61.36;97818.69;5131261;27;19966;-80
2023/06/19 09:22:59;;;;;;;;;;;;;;;26.10;61.35;97813.97;5149947;27;19924;-79
2023/06/19 09:25:26;;;;;;;;;;;;;;;26.04;61.44;97809.94;5143777;27;20392;-80
2023/06/19 09:27:53;;;;;;;;;;;;;;;25.93;62.06;97814.47;5142230;27;19928;-80
2023/06/19 09:30:19;;;;;;;;;;;;;;;25.66;62.81;97806.19;5145447;27;19923;-79
2023/06/19 09:32:46;;;;;;;;;;;;;;;26.03;62.50;97813.84;5146775;27;19923;-81
2023/06/19 09:35:12;;;;;;;;;;;;;;;26.17;62.71;97814.13;5125347;27;19965;-81
2023/06/19 09:37:40;;;;;;;;;;;;;;;26.31;62.75;97811.59;5141668;27;19959;-80
2023/06/19 09:40:10;;;;;;;;;;;;;;;26.26;62.23;97809.97;5143139;27;19949;-80
2023/06/19 09:42:37;;;;;;;;;;;;;;;26.22;62.14;97809.09;5145164;27;19930;-79
2023/06/19 09:45:05;;;;;;;;;;;;;;;26.43;62.28;97805.91;5143321;27;19919;-80
2023/06/19 09:47:32;;;;;;;;;;;;;;;26.25;62.39;97796.63;5141647;27;19924;-80
2023/06/19 09:49:58;;;;;;;;;;;;;;;26.43;62.50;97805.13;5141928;27;19972;-80
2023/06/19 09:52:25;;;;;;;;;;;;;;;26.42;62.35;97812.56;5147169;27;19943;-79
2023/06/19 09:54:52;;;;;;;;;;;;;;;26.46;63.06;97809.88;5131932;27;19923;-79
2023/06/19 09:57:20;;;;;;;;;;;;;;;26.47;62.59;97804.00;5146434;27;19934;-80
2023/06/19 09:59:48;;;;;;;;;;;;;;;26.41;62.95;97802.75;5144991;27;19942;-79
2023/06/19 10:02:15;;;;;;;;;;;;;;;26.40;63.69;97805.88;5129471;28;19927;-79
2023/06/19 10:04:49;;;;;;;;;;;;;;;26.38;63.56;97806.22;5148950;27;19919;-79
2023/06/19 10:07:19;;;;;;;;;;;;;;;26.46;63.68;97809.88;5143682;27;19918;-79
2023/06/19 10:09:58;;;;;;;;;;;;;;;26.47;64.19;97800.47;5143447;28;19924;-80
2023/06/19 10:12:36;;;;;;;;;;;;;;;26.41;64.16;97807.44;5134690;27;19947;-80
2023/06/19 10:15:13;;;;;;;;;;;;;;;26.36;64.26;97799.53;5144329;27;19981;-79
2023/06/19 10:17:43;;;;;;;;;;;;;;;26.46;63.90;97799.69;5145097;28;19927;-80
2023/06/19 10:20:20;;;;;;;;;;;;;;;26.50;63.88;97808.75;5142047;28;19928;-80
2023/06/19 10:22:51;;;;;;;;;;;;;;;26.55;64.37;97807.66;5144916;28;19988;-80
2023/06/19 10:25:21;;;;;;;;;;;;;;;26.38;65.40;97810.91;5123346;28;19978;-79
2023/06/19 10:27:52;;;;;;;;;;;;;;;26.27;65.29;97799.81;5141086;28;19958;-80
2023/06/19 10:30:18;;;;;;;;;;;;;;;26.43;65.18;97799.66;5141241;28;19944;-80
2023/06/19 10:32:45;;;;;;;;;;;;;;;26.62;64.33;97797.56;5127018;28;19954;-80
2023/06/19 10:35:12;;;;;;;;;;;;;;;26.75;63.59;97801.66;5150398;28;19984;-80
2023/06/19 10:37:38;;;;;;;;;;;;;;;26.74;63.23;97799.28;5151584;28;19912;-80
2023/06/19 10:40:08;;;;;;;;;;;;;;;26.83;63.39;97806.09;5145183;28;19931;-79
2023/06/19 10:42:34;;;;;;;;;;;;;;;27.09;63.53;97793.50;5140922;28;19955;-79
2023/06/19 10:45:05;;;;;;;;;;;;;;;27.09;62.87;97791.56;5141441;28;19923;-80
2023/06/19 10:47:32;;;;;;;;;;;;;;;26.61;64.34;97784.25;5146266;28;20119;-80
2023/06/19 10:49:59;;;;;;;;;;;;;;;26.94;64.04;97786.28;5141461;28;19931;-79
2023/06/19 10:52:25;;;;;;;;;;;;;;;27.10;63.74;97784.13;5126011;28;19999;-79
2023/06/19 10:54:54;;;;;;;;;;;;;;;27.22;62.94;97781.13;5145242;28;19931;-80
2023/06/19 10:57:26;;;;;;;;;;;;;;;27.12;63.16;97785.31;5142618;27;19965;-80
2023/06/19 10:59:53;;;;;;;;;;;;;;;27.19;63.29;97788.16;5145519;27;19923;-79
2023/06/19 11:02:21;;;;;;;;;;;;;;;27.33;62.24;97787.50;5130442;27;19945;-80
2023/06/19 11:04:47;;;;;;;;;;;;;;;27.27;62.72;97795.28;5148447;27;19920;-79
2023/06/19 11:07:14;;;;;;;;;;;;;;;27.38;62.13;97789.13;5145748;27;19972;-80
2023/06/19 11:09:40;;;;;;;;;;;;;;;27.12;62.85;97788.06;5144803;27;19962;-80
2023/06/19 11:12:08;;;;;;;;;;;;;;;26.92;62.96;97781.19;5146128;27;19923;-80
2023/06/19 11:14:39;;;;;;;;;;;;;;;27.06;63.79;97794.25;5149935;27;19980;-79
2023/06/19 11:17:06;;;;;;;;;;;;;;;26.98;63.48;97787.91;5144446;27;19920;-81
2023/06/19 11:19:34;;;;;;;;;;;;;;;27.11;63.93;97782.97;5142051;27;19916;-80
2023/06/19 11:22:03;;;;;;;;;;;;;;;26.95;64.23;97785.13;5148073;27;19941;-79
2023/06/19 11:24:29;;;;;;;;;;;;;;;26.87;64.51;97775.22;5147853;27;19928;-79
2023/06/19 11:26:58;;;;;;;;;;;;;;;26.72;65.09;97785.97;5147318;27;19931;-79
2023/06/19 11:29:26;;;;;;;;;;;;;;;26.89;65.63;97784.66;5150198;27;19923;-80
2023/06/19 11:31:53;;;;;;;;;;;;;;;26.87;65.59;97786.97;5151036;27;19924;-82
2023/06/19 11:34:20;;;;;;;;;;;;;;;26.88;66.46;97782.28;5147239;27;19920;-80
2023/06/19 11:36:48;;;;;;;;;;;;;;;26.82;66.65;97787.31;5145561;27;19954;-80
2023/06/19 11:39:16;;;;;;;;;;;;;;;26.81;67.00;97789.25;5147663;27;19927;-80
2023/06/19 11:41:44;;;;;;;;;;;;;;;26.71;68.02;97795.34;5150871;27;19923;-79
2023/06/19 11:44:10;;;;;;;;;;;;;;;26.72;67.74;97782.44;5146022;27;19933;-80
2023/06/19 11:46:37;;;;;;;;;;;;;;;26.70;68.11;97793.78;5144179;27;19920;-79
2023/06/19 11:49:10;;;;;;;;;;;;;;;26.70;68.76;97782.03;5145084;27;19951;-79
2023/06/19 11:51:36;;;;;;;;;;;;;;;26.71;68.14;97783.59;5147991;27;19931;-79
2023/06/19 11:54:06;;;;;;;;;;;;;;;26.81;69.82;97775.53;5145627;27;19931;-81
2023/06/19 11:56:32;;;;;;;;;;;;;;;26.69;70.01;97778.50;5148277;27;19966;-80
2023/06/19 11:58:59;;;;;;;;;;;;;;;26.71;70.05;97773.44;5129969;27;19920;-79
2023/06/19 12:01:26;;;;;;;;;;;;;;;26.80;70.02;97759.50;5125810;28;19993;-79
2023/06/19 12:03:52;;;;;;;;;;;;;;;26.69;70.73;97761.25;5144095;27;19930;-79
2023/06/19 12:06:19;;;;;;;;;;;;;;;26.62;70.06;97759.22;5146425;27;19919;-80
2023/06/19 12:08:45;;;;;;;;;;;;;;;26.73;70.66;97753.88;5148303;27;19923;-80
2023/06/19 12:11:14;;;;;;;;;;;;;;;26.79;70.89;97752.41;5145447;27;19941;-80
2023/06/19 12:13:40;;;;;;;;;;;;;;;27.03;70.06;97751.13;5144796;27;19923;-80
2023/06/19 12:16:07;;;;;;;;;;;;;;;26.85;70.04;97752.88;5150650;27;19908;-81
2023/06/19 12:18:33;;;;;;;;;;;;;;;26.79;70.75;97744.97;5131142;27;19983;-80
2023/06/19 12:21:00;;;;;;;;;;;;;;;26.78;71.84;97739.84;5147088;27;19924;-80
2023/06/19 12:23:27;;;;;;;;;;;;;;;26.92;72.31;97747.50;5144907;27;19950;-80
2023/06/19 12:25:53;;;;;;;;;;;;;;;27.15;70.88;97734.44;5127159;28;19946;-79
2023/06/19 12:28:21;;;;;;;;;;;;;;;27.23;69.52;97733.34;5148147;27;20330;-81
2023/06/19 12:30:51;;;;;;;;;;;;;;;27.18;68.59;97725.44;5148093;27;19923;-80
2023/06/19 12:33:18;;;;;;;;;;;;;;;27.30;67.93;97730.66;5143789;27;20399;-81
2023/06/19 12:35:44;;;;;;;;;;;;;;;27.14;67.01;97735.63;5143990;27;19928;-79
2023/06/19 12:38:11;;;;;;;;;;;;;;;26.91;67.54;97732.22;5146234;27;19924;-81
2023/06/19 12:40:38;;;;;;;;;;;;;;;27.15;66.10;97732.47;5153307;27;19938;-80
2023/06/19 12:43:05;;;;;;;;;;;;;;;27.36;64.47;97715.44;5148184;27;19923;-81
2023/06/19 12:45:32;;;;;;;;;;;;;;;27.57;62.65;97712.16;5143151;27;19924;-80
2023/06/19 12:47:59;;;;;;;;;;;;;;;27.65;59.85;97711.03;5143680;27;19966;-80